sensor_id;sensor_type;location;lat;lon;timestamp;temperature;humidity
3156;DHT22;1588;50.892;7.082;2022-08-20T00:01:01;21.60;99.90
3156;DHT22;1588;50.892;7.082;2022-08-20T00:06:07;21.50;99.90
3156;DHT22;1588;50.892;7.082;2022-08-20T00:11:14;21.40;99.90
3156;DHT22;1588;50.892;7.082;2022-08-20T00:16:19;21.40;99.90
3156;DHT22;1588;50.892;7.082;2022-08-20T00:21:22;21.40;99.90
3156;DHT22;1588;50.892;7.082;2022-08-20T00:26:26;21.30;99.90
3156;DHT22;1588;50.892;7.082;2022-08-20T00:31:29;21.30;99.90
3156;DHT22;1588;50.892;7.082;2022-08-20T00:36:31;21.30;99.90
3156;DHT22;1588;50.892;7.082;2022-08-20T00:41:35;21.20;99.90
3156;DHT22;1588;50.892;7.082;2022-08-20T00:46:39;21.20;99.90
3156;DHT22;1588;50.892;7.082;2022-08-20T00:51:45;21.10;99.90
3156;DHT22;1588;50.892;7.082;2022-08-20T00:56:54;21.10;99.90
3156;DHT22;1588;50.892;7.082;2022-08-20T01:01:58;21.00;99.90
3156;DHT22;1588;50.892;7.082;2022-08-20T01:07:02;21.00;99.90
3156;DHT22;1588;50.892;7.082;2022-08-20T01:12:07;21.00;99.90
3156;DHT22;1588;50.892;7.082;2022-08-20T01:17:16;21.00;99.90
3156;DHT22;1588;50.892;7.082;2022-08-20T01:22:24;20.90;99.90
3156;DHT22;1588;50.892;7.082;2022-08-20T01:27:48;20.80;99.90
3156;DHT22;1588;50.892;7.082;2022-08-20T01:32:52;20.70;99.90
3156;DHT22;1588;50.892;7.082;2022-08-20T01:37:54;20.60;99.90
3156;DHT22;1588;50.892;7.082;2022-08-20T01:42:58;20.50;99.90
3156;DHT22;1588;50.892;7.082;2022-08-20T01:48:00;20.50;99.90
3156;DHT22;1588;50.892;7.082;2022-08-20T01:53:10;20.40;99.90
3156;DHT22;1588;50.892;7.082;2022-08-20T01:58:17;20.30;99.90
3156;DHT22;1588;50.892;7.082;2022-08-20T02:03:19;20.30;99.90
3156;DHT22;1588;50.892;7.082;2022-08-20T02:08:22;20.20;99.90
3156;DHT22;1588;50.892;7.082;2022-08-20T02:13:26;20.20;99.90
3156;DHT22;1588;50.892;7.082;2022-08-20T02:18:28;20.10;99.90
3156;DHT22;1588;50.892;7.082;2022-08-20T02:23:30;20.00;99.90
3156;DHT22;1588;50.892;7.082;2022-08-20T02:28:34;20.00;99.90
3156;DHT22;1588;50.892;7.082;2022-08-20T02:33:37;20.00;99.90
3156;DHT22;1588;50.892;7.082;2022-08-20T02:38:39;19.90;99.90
3156;DHT22;1588;50.892;7.082;2022-08-20T02:43:43;19.90;99.90
3156;DHT22;1588;50.892;7.082;2022-08-20T02:48:46;19.80;99.90
3156;DHT22;1588;50.892;7.082;2022-08-20T02:53:48;19.70;99.90
3156;DHT22;1588;50.892;7.082;2022-08-20T02:58:52;19.70;99.90
3156;DHT22;1588;50.892;7.082;2022-08-20T03:03:54;19.50;99.90
3156;DHT22;1588;50.892;7.082;2022-08-20T03:08:58;19.30;99.90
3156;DHT22;1588;50.892;7.082;2022-08-20T03:14:04;19.20;99.90
3156;DHT22;1588;50.892;7.082;2022-08-20T03:19:06;19.10;99.90
3156;DHT22;1588;50.892;7.082;2022-08-20T03:24:09;19.10;99.90
3156;DHT22;1588;50.892;7.082;2022-08-20T03:29:13;19.10;99.90
3156;DHT22;1588;50.892;7.082;2022-08-20T03:34:15;19.20;99.90
3156;DHT22;1588;50.892;7.082;2022-08-20T03:39:17;19.40;99.90
3156;DHT22;1588;50.892;7.082;2022-08-20T03:44:21;19.40;99.90
3156;DHT22;1588;50.892;7.082;2022-08-20T03:49:24;19.50;99.90
3156;DHT22;1588;50.892;7.082;2022-08-20T03:54:26;19.50;99.90
3156;DHT22;1588;50.892;7.082;2022-08-20T03:59:30;19.60;99.90
3156;DHT22;1588;50.892;7.082;2022-08-20T04:04:32;19.50;99.90
3156;DHT22;1588;50.892;7.082;2022-08-20T04:09:35;19.60;99.90
3156;DHT22;1588;50.892;7.082;2022-08-20T04:14:45;19.50;99.90
3156;DHT22;1588;50.892;7.082;2022-08-20T04:19:47;19.60;99.90
3156;DHT22;1588;50.892;7.082;2022-08-20T04:24:49;19.70;99.90
3156;DHT22;1588;50.892;7.082;2022-08-20T04:29:53;19.70;99.90
3156;DHT22;1588;50.892;7.082;2022-08-20T04:34:55;19.70;99.90
3156;DHT22;1588;50.892;7.082;2022-08-20T04:40:02;19.70;99.90
3156;DHT22;1588;50.892;7.082;2022-08-20T04:45:24;19.60;99.90
3156;DHT22;1588;50.892;7.082;2022-08-20T04:50:26;19.60;99.90
3156;DHT22;1588;50.892;7.082;2022-08-20T04:55:29;19.60;99.90
3156;DHT22;1588;50.892;7.082;2022-08-20T05:00:33;19.50;99.90
3156;DHT22;1588;50.892;7.082;2022-08-20T05:05:35;19.40;99.90
3156;DHT22;1588;50.892;7.082;2022-08-20T05:10:39;19.30;99.90
3156;DHT22;1588;50.892;7.082;2022-08-20T05:15:43;19.20;99.90
3156;DHT22;1588;50.892;7.082;2022-08-20T05:20:48;18.90;99.90
3156;DHT22;1588;50.892;7.082;2022-08-20T05:25:51;18.90;99.90
3156;DHT22;1588;50.892;7.082;2022-08-20T05:30:55;18.80;99.90
3156;DHT22;1588;50.892;7.082;2022-08-20T05:35:57;18.80;99.90
3156;DHT22;1588;50.892;7.082;2022-08-20T05:41:00;18.70;99.90
3156;DHT22;1588;50.892;7.082;2022-08-20T05:46:07;18.70;99.90
3156;DHT22;1588;50.892;7.082;2022-08-20T05:51:10;18.70;99.90
3156;DHT22;1588;50.892;7.082;2022-08-20T05:56:12;18.80;99.90
3156;DHT22;1588;50.892;7.082;2022-08-20T06:01:16;18.90;99.90
3156;DHT22;1588;50.892;7.082;2022-08-20T06:06:18;18.90;99.90
3156;DHT22;1588;50.892;7.082;2022-08-20T06:11:21;19.00;99.90
3156;DHT22;1588;50.892;7.082;2022-08-20T06:16:27;19.10;99.90
3156;DHT22;1588;50.892;7.082;2022-08-20T06:21:30;19.10;99.90
3156;DHT22;1588;50.892;7.082;2022-08-20T06:26:37;18.90;99.90
3156;DHT22;1588;50.892;7.082;2022-08-20T06:31:42;19.00;99.90
3156;DHT22;1588;50.892;7.082;2022-08-20T06:36:45;18.90;99.90
3156;DHT22;1588;50.892;7.082;2022-08-20T06:41:47;18.90;99.90
3156;DHT22;1588;50.892;7.082;2022-08-20T06:46:52;18.80;99.90
3156;DHT22;1588;50.892;7.082;2022-08-20T06:51:56;18.80;99.90
3156;DHT22;1588;50.892;7.082;2022-08-20T06:56:58;18.70;99.90
3156;DHT22;1588;50.892;7.082;2022-08-20T07:02:02;18.80;99.90
3156;DHT22;1588;50.892;7.082;2022-08-20T07:07:05;18.70;99.90
3156;DHT22;1588;50.892;7.082;2022-08-20T07:12:16;18.60;99.90
3156;DHT22;1588;50.892;7.082;2022-08-20T07:17:27;18.60;99.90
3156;DHT22;1588;50.892;7.082;2022-08-20T07:22:29;18.70;99.90
3156;DHT22;1588;50.892;7.082;2022-08-20T07:27:35;18.70;99.90
3156;DHT22;1588;50.892;7.082;2022-08-20T07:32:39;18.70;99.90
3156;DHT22;1588;50.892;7.082;2022-08-20T07:37:49;18.60;99.90
3156;DHT22;1588;50.892;7.082;2022-08-20T07:43:00;18.70;99.90
3156;DHT22;1588;50.892;7.082;2022-08-20T07:48:08;18.80;99.90
3156;DHT22;1588;50.892;7.082;2022-08-20T07:53:11;19.10;99.90
3156;DHT22;1588;50.892;7.082;2022-08-20T07:58:16;19.50;99.90
3156;DHT22;1588;50.892;7.082;2022-08-20T08:03:21;19.90;99.90
3156;DHT22;1588;50.892;7.082;2022-08-20T08:08:25;20.00;99.90
3156;DHT22;1588;50.892;7.082;2022-08-20T08:13:32;20.20;99.90
3156;DHT22;1588;50.892;7.082;2022-08-20T08:18:40;21.10;99.90
3156;DHT22;1588;50.892;7.082;2022-08-20T08:23:44;20.90;99.90
3156;DHT22;1588;50.892;7.082;2022-08-20T08:28:46;21.20;99.90
3156;DHT22;1588;50.892;7.082;2022-08-20T08:33:50;21.30;99.90
3156;DHT22;1588;50.892;7.082;2022-08-20T08:38:53;20.90;99.90
3156;DHT22;1588;50.892;7.082;2022-08-20T08:44:04;21.10;99.90
3156;DHT22;1588;50.892;7.082;2022-08-20T08:49:12;21.20;99.90
3156;DHT22;1588;50.892;7.082;2022-08-20T08:54:18;21.30;99.90
3156;DHT22;1588;50.892;7.082;2022-08-20T08:59:22;22.00;99.90
3156;DHT22;1588;50.892;7.082;2022-08-20T09:04:29;21.30;99.90
3156;DHT22;1588;50.892;7.082;2022-08-20T09:09:35;20.70;99.90
3156;DHT22;1588;50.892;7.082;2022-08-20T09:14:44;20.50;99.90
3156;DHT22;1588;50.892;7.082;2022-08-20T09:19:49;20.50;99.90
3156;DHT22;1588;50.892;7.082;2022-08-20T09:24:52;20.50;99.90
3156;DHT22;1588;50.892;7.082;2022-08-20T09:29:56;20.60;99.90
3156;DHT22;1588;50.892;7.082;2022-08-20T09:34:59;20.50;99.90
3156;DHT22;1588;50.892;7.082;2022-08-20T09:40:04;20.50;99.90
3156;DHT22;1588;50.892;7.082;2022-08-20T09:45:08;20.70;99.90
3156;DHT22;1588;50.892;7.082;2022-08-20T09:50:12;20.60;99.90
3156;DHT22;1588;50.892;7.082;2022-08-20T09:55:21;20.70;99.90
3156;DHT22;1588;50.892;7.082;2022-08-20T10:00:24;20.80;99.90
3156;DHT22;1588;50.892;7.082;2022-08-20T10:05:28;20.80;99.90
3156;DHT22;1588;50.892;7.082;2022-08-20T10:10:31;20.80;99.90
3156;DHT22;1588;50.892;7.082;2022-08-20T10:15:34;20.90;99.90
3156;DHT22;1588;50.892;7.082;2022-08-20T10:20:39;21.20;99.90
3156;DHT22;1588;50.892;7.082;2022-08-20T10:25:44;22.80;99.90
3156;DHT22;1588;50.892;7.082;2022-08-20T10:30:46;23.30;99.90
3156;DHT22;1588;50.892;7.082;2022-08-20T10:35:50;24.00;99.90
3156;DHT22;1588;50.892;7.082;2022-08-20T10:40:53;23.40;99.90
3156;DHT22;1588;50.892;7.082;2022-08-20T10:45:55;23.60;99.90
3156;DHT22;1588;50.892;7.082;2022-08-20T10:50:59;23.80;99.90
3156;DHT22;1588;50.892;7.082;2022-08-20T10:56:02;24.00;99.90
3156;DHT22;1588;50.892;7.082;2022-08-20T11:01:04;24.40;99.90
3156;DHT22;1588;50.892;7.082;2022-08-20T11:06:08;24.70;99.90
3156;DHT22;1588;50.892;7.082;2022-08-20T11:11:11;25.60;99.90
3156;DHT22;1588;50.892;7.082;2022-08-20T11:16:13;26.30;99.90
3156;DHT22;1588;50.892;7.082;2022-08-20T11:21:20;25.50;99.90
3156;DHT22;1588;50.892;7.082;2022-08-20T11:26:24;25.80;99.90
3156;DHT22;1588;50.892;7.082;2022-08-20T11:31:27;26.40;99.90
3156;DHT22;1588;50.892;7.082;2022-08-20T11:36:31;25.20;99.90
3156;DHT22;1588;50.892;7.082;2022-08-20T11:41:33;24.70;99.90
3156;DHT22;1588;50.892;7.082;2022-08-20T11:46:36;25.30;99.90
3156;DHT22;1588;50.892;7.082;2022-08-20T11:51:39;25.30;99.90
3156;DHT22;1588;50.892;7.082;2022-08-20T11:56:42;24.80;99.90
3156;DHT22;1588;50.892;7.082;2022-08-20T12:01:45;24.00;99.90
3156;DHT22;1588;50.892;7.082;2022-08-20T12:06:49;23.60;99.90
3156;DHT22;1588;50.892;7.082;2022-08-20T12:12:01;24.70;99.90
3156;DHT22;1588;50.892;7.082;2022-08-20T12:17:07;24.90;99.90
3156;DHT22;1588;50.892;7.082;2022-08-20T12:22:11;25.50;99.90
3156;DHT22;1588;50.892;7.082;2022-08-20T12:27:16;25.50;99.90
3156;DHT22;1588;50.892;7.082;2022-08-20T12:32:19;24.50;99.90
3156;DHT22;1588;50.892;7.082;2022-08-20T12:37:29;24.70;99.90
3156;DHT22;1588;50.892;7.082;2022-08-20T12:42:32;25.30;99.90
3156;DHT22;1588;50.892;7.082;2022-08-20T12:47:36;25.40;99.90
3156;DHT22;1588;50.892;7.082;2022-08-20T12:52:40;25.50;99.90
3156;DHT22;1588;50.892;7.082;2022-08-20T12:57:45;25.50;99.90
3156;DHT22;1588;50.892;7.082;2022-08-20T13:02:48;25.40;99.90
3156;DHT22;1588;50.892;7.082;2022-08-20T13:07:53;25.20;99.90
3156;DHT22;1588;50.892;7.082;2022-08-20T13:12:56;24.70;99.90
3156;DHT22;1588;50.892;7.082;2022-08-20T13:18:01;24.10;99.90
3156;DHT22;1588;50.892;7.082;2022-08-20T13:23:05;23.70;99.90
3156;DHT22;1588;50.892;7.082;2022-08-20T13:28:07;23.60;99.90
3156;DHT22;1588;50.892;7.082;2022-08-20T13:33:09;23.40;99.90
3156;DHT22;1588;50.892;7.082;2022-08-20T13:38:13;23.50;99.90
3156;DHT22;1588;50.892;7.082;2022-08-20T13:43:21;23.60;99.90
3156;DHT22;1588;50.892;7.082;2022-08-20T13:48:24;23.70;99.90
3156;DHT22;1588;50.892;7.082;2022-08-20T13:53:28;23.80;99.90
3156;DHT22;1588;50.892;7.082;2022-08-20T13:58:30;24.00;99.90
3156;DHT22;1588;50.892;7.082;2022-08-20T14:03:33;23.80;99.90
3156;DHT22;1588;50.892;7.082;2022-08-20T14:08:37;23.70;99.90
3156;DHT22;1588;50.892;7.082;2022-08-20T14:13:39;23.70;99.90
3156;DHT22;1588;50.892;7.082;2022-08-20T14:18:41;23.80;99.90
3156;DHT22;1588;50.892;7.082;2022-08-20T14:23:49;23.60;99.90
3156;DHT22;1588;50.892;7.082;2022-08-20T14:28:52;23.80;99.90
3156;DHT22;1588;50.892;7.082;2022-08-20T14:33:54;23.70;99.90
3156;DHT22;1588;50.892;7.082;2022-08-20T14:38:58;23.90;99.90
3156;DHT22;1588;50.892;7.082;2022-08-20T14:44:00;24.30;99.90
3156;DHT22;1588;50.892;7.082;2022-08-20T14:49:02;24.80;99.90
3156;DHT22;1588;50.892;7.082;2022-08-20T14:54:06;25.00;99.90
3156;DHT22;1588;50.892;7.082;2022-08-20T14:59:09;25.20;99.90
3156;DHT22;1588;50.892;7.082;2022-08-20T15:04:11;25.30;99.90
3156;DHT22;1588;50.892;7.082;2022-08-20T15:09:18;25.30;99.90
3156;DHT22;1588;50.892;7.082;2022-08-20T15:14:24;25.50;99.90
3156;DHT22;1588;50.892;7.082;2022-08-20T15:19:27;25.60;99.90
3156;DHT22;1588;50.892;7.082;2022-08-20T15:24:31;25.50;99.90
3156;DHT22;1588;50.892;7.082;2022-08-20T15:29:33;25.60;99.90
3156;DHT22;1588;50.892;7.082;2022-08-20T15:34:36;25.60;99.90
3156;DHT22;1588;50.892;7.082;2022-08-20T15:39:41;25.70;99.90
3156;DHT22;1588;50.892;7.082;2022-08-20T15:44:44;25.60;99.90
3156;DHT22;1588;50.892;7.082;2022-08-20T15:49:48;25.60;99.90
3156;DHT22;1588;50.892;7.082;2022-08-20T15:54:53;25.60;99.90
3156;DHT22;1588;50.892;7.082;2022-08-20T16:00:04;25.50;99.90
3156;DHT22;1588;50.892;7.082;2022-08-20T16:05:23;25.50;99.90
3156;DHT22;1588;50.892;7.082;2022-08-20T16:10:37;25.40;99.90
3156;DHT22;1588;50.892;7.082;2022-08-20T16:15:43;25.40;99.90
3156;DHT22;1588;50.892;7.082;2022-08-20T16:20:48;25.40;99.40
3156;DHT22;1588;50.892;7.082;2022-08-20T16:26:03;25.20;99.90
3156;DHT22;1588;50.892;7.082;2022-08-20T16:31:13;25.00;99.90
3156;DHT22;1588;50.892;7.082;2022-08-20T16:36:22;25.10;99.90
3156;DHT22;1588;50.892;7.082;2022-08-20T16:41:32;25.10;99.90
3156;DHT22;1588;50.892;7.082;2022-08-20T16:46:39;25.00;99.90
3156;DHT22;1588;50.892;7.082;2022-08-20T16:51:46;25.00;99.90
3156;DHT22;1588;50.892;7.082;2022-08-20T16:56:58;24.90;99.70
3156;DHT22;1588;50.892;7.082;2022-08-20T17:02:03;24.80;99.90
3156;DHT22;1588;50.892;7.082;2022-08-20T17:07:06;24.80;99.90
3156;DHT22;1588;50.892;7.082;2022-08-20T17:12:16;24.70;99.90
3156;DHT22;1588;50.892;7.082;2022-08-20T17:17:22;24.50;99.90
3156;DHT22;1588;50.892;7.082;2022-08-20T17:22:27;24.50;99.90
3156;DHT22;1588;50.892;7.082;2022-08-20T17:27:37;24.50;99.90
3156;DHT22;1588;50.892;7.082;2022-08-20T17:32:52;24.50;99.90
3156;DHT22;1588;50.892;7.082;2022-08-20T17:37:56;24.40;99.90
3156;DHT22;1588;50.892;7.082;2022-08-20T17:43:06;24.20;99.90
3156;DHT22;1588;50.892;7.082;2022-08-20T17:48:13;24.10;99.90
3156;DHT22;1588;50.892;7.082;2022-08-20T17:53:19;23.80;99.90
3156;DHT22;1588;50.892;7.082;2022-08-20T17:58:31;23.60;99.90
3156;DHT22;1588;50.892;7.082;2022-08-20T18:03:36;23.40;99.90
3156;DHT22;1588;50.892;7.082;2022-08-20T18:08:45;23.20;99.90
3156;DHT22;1588;50.892;7.082;2022-08-20T18:19:30;22.90;99.90
3156;DHT22;1588;50.892;7.082;2022-08-20T18:24:39;22.70;99.90
3156;DHT22;1588;50.892;7.082;2022-08-20T18:29:51;22.60;99.90
3156;DHT22;1588;50.892;7.082;2022-08-20T18:35:10;22.50;99.90
3156;DHT22;1588;50.892;7.082;2022-08-20T18:40:21;22.20;99.90
3156;DHT22;1588;50.892;7.082;2022-08-20T18:45:30;22.00;99.90
3156;DHT22;1588;50.892;7.082;2022-08-20T18:50:47;21.80;99.90
3156;DHT22;1588;50.892;7.082;2022-08-20T18:56:00;21.60;99.90
3156;DHT22;1588;50.892;7.082;2022-08-20T19:01:10;21.50;99.90
3156;DHT22;1588;50.892;7.082;2022-08-20T19:06:29;21.20;99.90
3156;DHT22;1588;50.892;7.082;2022-08-20T19:11:57;20.80;99.90
3156;DHT22;1588;50.892;7.082;2022-08-20T19:17:06;20.50;99.90
3156;DHT22;1588;50.892;7.082;2022-08-20T19:22:11;20.20;99.90
3156;DHT22;1588;50.892;7.082;2022-08-20T19:27:17;19.90;99.90
3156;DHT22;1588;50.892;7.082;2022-08-20T19:32:23;19.70;99.90
3156;DHT22;1588;50.892;7.082;2022-08-20T19:37:28;19.50;99.90
3156;DHT22;1588;50.892;7.082;2022-08-20T19:42:34;19.40;99.90
3156;DHT22;1588;50.892;7.082;2022-08-20T19:47:51;19.20;99.90
3156;DHT22;1588;50.892;7.082;2022-08-20T19:53:03;18.90;99.90
3156;DHT22;1588;50.892;7.082;2022-08-20T19:58:13;18.80;99.90
3156;DHT22;1588;50.892;7.082;2022-08-20T20:03:21;18.60;99.90
3156;DHT22;1588;50.892;7.082;2022-08-20T20:08:26;18.50;99.90
3156;DHT22;1588;50.892;7.082;2022-08-20T20:13:30;18.30;99.90
3156;DHT22;1588;50.892;7.082;2022-08-20T20:18:38;18.10;99.90
3156;DHT22;1588;50.892;7.082;2022-08-20T20:23:49;18.00;99.90
3156;DHT22;1588;50.892;7.082;2022-08-20T20:28:59;17.80;99.90
3156;DHT22;1588;50.892;7.082;2022-08-20T20:34:08;17.70;99.90
3156;DHT22;1588;50.892;7.082;2022-08-20T20:39:26;17.50;99.90
3156;DHT22;1588;50.892;7.082;2022-08-20T20:44:32;17.40;99.90
3156;DHT22;1588;50.892;7.082;2022-08-20T20:49:48;17.40;99.90
3156;DHT22;1588;50.892;7.082;2022-08-20T20:55:12;17.20;99.90
3156;DHT22;1588;50.892;7.082;2022-08-20T21:00:16;17.10;99.90
3156;DHT22;1588;50.892;7.082;2022-08-20T21:05:31;17.00;99.90
3156;DHT22;1588;50.892;7.082;2022-08-20T21:10:36;16.90;99.90
3156;DHT22;1588;50.892;7.082;2022-08-20T21:15:39;16.80;99.90
3156;DHT22;1588;50.892;7.082;2022-08-20T21:20:43;16.70;99.90
3156;DHT22;1588;50.892;7.082;2022-08-20T21:25:48;16.70;99.90
3156;DHT22;1588;50.892;7.082;2022-08-20T21:30:50;16.60;99.90
3156;DHT22;1588;50.892;7.082;2022-08-20T21:35:54;16.60;99.90
3156;DHT22;1588;50.892;7.082;2022-08-20T21:40:58;16.50;99.90
3156;DHT22;1588;50.892;7.082;2022-08-20T21:46:19;16.40;99.90
3156;DHT22;1588;50.892;7.082;2022-08-20T21:51:23;16.30;99.90
3156;DHT22;1588;50.892;7.082;2022-08-20T21:56:25;16.20;99.90
3156;DHT22;1588;50.892;7.082;2022-08-20T22:01:28;16.00;99.90
3156;DHT22;1588;50.892;7.082;2022-08-20T22:06:38;16.00;99.90
3156;DHT22;1588;50.892;7.082;2022-08-20T22:11:40;15.90;99.90
3156;DHT22;1588;50.892;7.082;2022-08-20T22:16:42;15.80;99.90
3156;DHT22;1588;50.892;7.082;2022-08-20T22:21:47;15.70;99.90
3156;DHT22;1588;50.892;7.082;2022-08-20T22:26:50;15.60;99.90
3156;DHT22;1588;50.892;7.082;2022-08-20T22:31:52;15.50;99.90
3156;DHT22;1588;50.892;7.082;2022-08-20T22:36:57;15.50;99.90
3156;DHT22;1588;50.892;7.082;2022-08-20T22:42:00;15.40;99.90
3156;DHT22;1588;50.892;7.082;2022-08-20T22:47:05;15.40;99.90
3156;DHT22;1588;50.892;7.082;2022-08-20T22:52:10;15.30;99.90
3156;DHT22;1588;50.892;7.082;2022-08-20T22:57:13;15.20;99.90
3156;DHT22;1588;50.892;7.082;2022-08-20T23:02:17;15.10;99.90
3156;DHT22;1588;50.892;7.082;2022-08-20T23:07:21;15.00;99.90
3156;DHT22;1588;50.892;7.082;2022-08-20T23:12:23;14.90;99.90
3156;DHT22;1588;50.892;7.082;2022-08-20T23:17:26;14.90;99.90
3156;DHT22;1588;50.892;7.082;2022-08-20T23:22:31;14.90;99.90
3156;DHT22;1588;50.892;7.082;2022-08-20T23:27:35;14.80;99.90
3156;DHT22;1588;50.892;7.082;2022-08-20T23:32:39;14.80;99.90
3156;DHT22;1588;50.892;7.082;2022-08-20T23:37:45;14.80;99.90
3156;DHT22;1588;50.892;7.082;2022-08-20T23:42:47;14.70;99.90
3156;DHT22;1588;50.892;7.082;2022-08-20T23:47:50;14.60;99.90
3156;DHT22;1588;50.892;7.082;2022-08-20T23:52:55;14.50;99.90
3156;DHT22;1588;50.892;7.082;2022-08-20T23:57:57;14.40;99.90
